Time;durP1;ratioP1;P1;durP2;ratioP2;P2;SDS_P1;SDS_P2;PMS_P1;PMS_P2;Temp;Humidity;BMP_temperature;BMP_pressure;BME280_temperature;BME280_humidity;BME280_pressure;Samples;Min_cycle;Max_cycle;Signal;HPM_P1;HPM_P2
2022/03/14 00:01:38;;;;;;;32.78;12.77;;;4.20;85.80;;;2.70;48.35;102090.00;4951314;28;20019;-74
2022/03/14 00:04:04;;;;;;;32.08;11.25;;;4.20;86.20;;;2.66;48.49;102089.13;4951972;28;20091;-73
2022/03/14 00:06:30;;;;;;;32.95;13.35;;;4.20;86.60;;;2.65;48.52;102085.63;4966331;28;20043;-74
2022/03/14 00:09:06;;;;;;;29.80;12.27;;;4.20;86.80;;;2.60;49.19;102089.06;4966426;28;20048;-74
2022/03/14 00:11:35;;;;;;;30.08;13.05;;;4.10;86.30;;;2.61;48.90;102083.00;4937046;28;20033;-74
2022/03/14 00:14:06;;;;;;;26.42;12.52;;;4.20;86.30;;;2.65;48.58;102092.56;4950563;28;20043;-73
2022/03/14 00:16:35;;;;;;;27.52;12.32;;;4.20;86.20;;;2.64;48.69;102091.72;4952168;28;20027;-75
2022/03/14 00:19:04;;;;;;;28.40;12.95;;;4.20;86.20;;;2.65;48.80;102089.97;4952562;28;20038;-73
2022/03/14 00:21:30;;;;;;;29.40;12.75;;;4.20;86.50;;;2.65;48.56;102088.22;4952338;28;20551;-73
2022/03/14 00:23:57;;;;;;;24.27;9.25;;;4.20;86.80;;;2.62;48.58;102093.41;4951201;28;20158;-74
2022/03/14 00:26:26;;;;;;;30.92;12.88;;;4.20;87.00;;;2.64;49.09;102089.09;4952849;28;20132;-74
2022/03/14 00:28:55;;;;;;;29.48;10.88;;;4.20;87.40;;;2.60;49.33;102089.94;4952533;28;20110;-74
2022/03/14 00:31:22;;;;;;;30.15;13.13;;;4.20;87.50;;;2.64;49.25;102086.50;4950589;28;20113;-74
2022/03/14 00:33:49;;;;;;;31.17;13.45;;;4.20;87.60;;;2.63;49.65;102084.75;4931339;28;20034;-73
2022/03/14 00:36:15;;;;;;;29.65;13.27;;;4.20;87.80;;;2.59;49.45;102082.13;4964678;28;20407;-73
2022/03/14 00:38:41;;;;;;;31.05;12.85;;;4.10;87.70;;;2.53;49.43;102088.16;4951261;28;20027;-74
2022/03/14 00:41:09;;;;;;;28.05;13.00;;;4.10;87.70;;;2.49;49.58;102083.78;4953667;28;20138;-74
2022/03/14 00:43:36;;;;;;;32.67;13.68;;;4.00;88.10;;;2.42;49.83;102090.66;4951463;28;20031;-74
2022/03/14 00:46:03;;;;;;;32.20;13.48;;;4.00;88.30;;;2.42;50.17;102087.19;4949666;28;20073;-74
2022/03/14 00:48:32;;;;;;;28.58;13.13;;;4.00;88.40;;;2.43;50.08;102088.91;4951760;28;20026;-74
2022/03/14 00:50:59;;;;;;;28.80;13.80;;;4.00;88.40;;;2.41;50.38;102085.44;4952705;28;20487;-74
2022/03/14 00:53:25;;;;;;;29.35;13.80;;;3.90;88.80;;;2.34;50.29;102083.66;4950347;28;20082;-73
2022/03/14 00:55:54;;;;;;;33.78;13.50;;;3.90;88.80;;;2.29;50.48;102083.63;4954746;28;20027;-73
2022/03/14 00:58:20;;;;;;;31.42;14.10;;;3.80;89.00;;;2.27;50.67;102080.13;4951652;28;20031;-73
2022/03/14 01:00:48;;;;;;;33.20;13.38;;;3.80;88.90;;;2.26;50.44;102078.38;4949910;28;20043;-73
2022/03/14 01:03:15;;;;;;;28.20;14.20;;;3.80;89.00;;;2.29;50.56;102073.22;4935223;28;20488;-74
2022/03/14 01:05:41;;;;;;;34.67;14.07;;;3.80;89.50;;;2.26;50.57;102073.16;4953059;28;20491;-74
2022/03/14 01:08:10;;;;;;;36.72;14.40;;;3.80;89.40;;;2.20;50.59;102063.59;4949595;28;20391;-73
2022/03/14 01:10:36;;;;;;;33.15;14.73;;;3.80;89.70;;;2.22;50.94;102074.84;4944305;28;20015;-74
2022/03/14 01:13:03;;;;;;;31.52;14.27;;;3.70;90.10;;;2.16;51.69;102063.53;4925508;28;20464;-73
2022/03/14 01:15:32;;;;;;;26.95;11.25;;;3.70;90.20;;;2.07;51.60;102069.50;4943794;28;20019;-74
2022/03/14 01:18:01;;;;;;;29.52;13.10;;;3.60;90.50;;;2.00;52.23;102066.00;4951841;28;20026;-73
2022/03/14 01:20:27;;;;;;;33.13;14.32;;;3.60;90.60;;;2.00;52.19;102066.00;4932877;28;20031;-74
2022/03/14 01:22:56;;;;;;;33.55;14.98;;;3.60;90.60;;;1.97;52.15;102059.91;4949816;28;20030;-73
2022/03/14 01:25:24;;;;;;;32.05;15.18;;;3.50;90.80;;;1.91;52.99;102050.31;4935046;28;20058;-75
2022/03/14 01:27:52;;;;;;;32.83;15.18;;;3.40;91.10;;;1.76;53.34;102051.03;4952232;28;20039;-73
2022/03/14 01:30:19;;;;;;;38.13;14.88;;;3.30;91.10;;;1.68;53.37;102057.84;4943525;28;20026;-73
2022/03/14 01:32:47;;;;;;;33.47;15.00;;;3.30;91.20;;;1.69;53.47;102059.59;4949802;28;20051;-74
2022/03/14 01:35:13;;;;;;;38.88;15.55;;;3.30;91.30;;;1.68;53.25;102060.44;4975712;28;20042;-74
2022/03/14 01:37:39;;;;;;;31.42;12.90;;;3.30;91.30;;;1.64;53.55;102056.97;4952453;28;20023;-73
2022/03/14 01:40:09;;;;;;;35.45;13.68;;;3.30;91.40;;;1.63;53.25;102052.59;4951197;28;20046;-74
2022/03/14 01:42:35;;;;;;;37.85;15.00;;;3.20;91.40;;;1.65;53.36;102052.63;4933958;28;20634;-74
2022/03/14 01:45:04;;;;;;;32.08;15.15;;;3.30;91.30;;;1.69;53.19;102051.81;4951873;28;20027;-74
2022/03/14 01:47:30;;;;;;;33.53;14.25;;;3.20;91.40;;;1.59;53.23;102043.03;4951853;28;20039;-73
2022/03/14 01:49:56;;;;;;;33.88;15.82;;;3.20;91.30;;;1.63;53.18;102049.16;4949458;28;20483;-74
2022/03/14 01:52:22;;;;;;;36.55;15.45;;;3.20;91.50;;;1.57;53.55;102041.28;4949665;28;20486;-73
2022/03/14 01:54:48;;;;;;;38.63;15.50;;;3.40;91.50;;;1.58;53.24;102054.28;4941504;28;20039;-74
2022/03/14 01:57:14;;;;;;;36.85;16.10;;;3.20;91.40;;;1.55;53.45;102054.22;4933320;28;20239;-74
2022/03/14 01:59:41;;;;;;;28.58;13.45;;;3.10;91.40;;;1.49;53.78;102048.09;4948089;28;20082;-74
2022/03/14 02:02:07;;;;;;;34.72;14.38;;;3.10;91.60;;;1.48;53.61;102042.03;4950882;28;20030;-73
2022/03/14 02:04:33;;;;;;;35.40;15.63;;;3.10;91.70;;;1.50;53.69;102036.88;4951122;28;20027;-73
2022/03/14 02:06:59;;;;;;;37.15;16.92;;;3.10;91.80;;;1.50;54.01;102044.66;4941499;28;20045;-74
2022/03/14 02:09:25;;;;;;;41.67;16.33;;;3.10;91.90;;;1.50;54.05;102036.88;4952475;28;20030;-73
2022/03/14 02:11:57;;;;;;;36.35;16.55;;;3.10;92.00;;;1.51;54.11;102036.00;4949117;28;20067;-73
2022/03/14 02:14:25;;;;;;;31.27;15.43;;;3.10;91.90;;;1.54;54.09;102036.06;4961239;28;20043;-73
2022/03/14 02:16:53;;;;;;;35.28;16.25;;;3.10;91.90;;;1.50;54.30;102027.34;4956683;28;20043;-73
2022/03/14 02:19:20;;;;;;;37.00;16.40;;;3.10;91.70;;;1.55;53.82;102028.28;4934782;28;20401;-73
2022/03/14 02:21:46;;;;;;;33.03;15.55;;;3.10;91.80;;;1.54;53.42;102028.28;4949199;28;20073;-72
2022/03/14 02:24:12;;;;;;;39.33;16.48;;;3.10;91.70;;;1.55;53.61;102030.00;4949749;28;20384;-73
2022/03/14 02:26:40;;;;;;;34.35;16.50;;;3.10;91.60;;;1.59;53.27;102031.78;4948798;28;20046;-74
2022/03/14 02:29:09;;;;;;;34.80;15.95;;;3.10;91.50;;;1.62;53.23;102035.28;4943883;28;20080;-73
2022/03/14 02:31:38;;;;;;;39.40;16.27;;;3.20;91.50;;;1.68;52.83;102026.69;4949423;28;20077;-72
2022/03/14 02:34:08;;;;;;;35.20;16.00;;;3.20;91.30;;;1.69;52.86;102033.63;4948935;28;20027;-73
2022/03/14 02:36:39;;;;;;;37.17;16.65;;;3.20;91.20;;;1.69;52.68;102036.22;4947631;28;20023;-74
2022/03/14 02:39:07;;;;;;;34.10;16.50;;;3.20;91.00;;;1.75;52.56;102043.19;4974986;28;20765;-73
2022/03/14 02:41:33;;;;;;;36.60;17.33;;;3.30;91.00;;;1.78;52.38;102041.53;4932386;28;20027;-74
2022/03/14 02:44:01;;;;;;;32.75;12.55;;;3.30;90.90;;;1.78;52.03;102048.44;4949212;28;20035;-74
2022/03/14 02:46:27;;;;;;;38.33;17.20;;;3.30;90.80;;;1.79;51.99;102050.16;4947424;28;21047;-73
2022/03/14 02:48:53;;;;;;;41.67;17.17;;;3.30;90.80;;;1.83;51.97;102045.03;4949714;28;20061;-73
2022/03/14 02:51:19;;;;;;;41.72;17.27;;;3.40;90.70;;;1.85;51.96;102050.25;4951664;28;20504;-73
2022/03/14 02:53:45;;;;;;;40.92;17.08;;;3.40;90.70;;;1.85;51.82;102045.03;4933429;28;20192;-73
2022/03/14 02:56:11;;;;;;;44.58;17.42;;;3.40;90.90;;;1.79;52.04;102040.69;4932103;28;20038;-73
2022/03/14 02:58:39;;;;;;;36.83;16.17;;;3.30;90.90;;;1.78;52.14;102040.66;4932648;28;20449;-73
2022/03/14 03:01:05;;;;;;;36.45;16.75;;;3.30;91.00;;;1.82;52.39;102045.03;4949671;28;20088;-74
2022/03/14 03:03:32;;;;;;;43.42;18.27;;;3.30;91.10;;;1.79;52.22;102040.69;4949796;28;20089;-74
2022/03/14 03:05:58;;;;;;;39.83;16.75;;;3.30;91.30;;;1.77;52.78;102034.59;4940385;28;20468;-73
2022/03/14 03:08:24;;;;;;;40.25;17.73;;;3.40;91.30;;;1.82;52.59;102039.84;4948051;28;20105;-75
2022/03/14 03:10:51;;;;;;;38.40;17.70;;;3.30;91.40;;;1.80;52.64;102037.22;4932163;28;20038;-74
2022/03/14 03:13:17;;;;;;;39.47;17.77;;;3.40;91.40;;;1.82;52.88;102038.09;4950559;28;20042;-73
2022/03/14 03:15:43;;;;;;;38.83;16.63;;;3.40;91.50;;;1.83;53.14;102026.84;4937577;28;20119;-74
2022/03/14 03:18:09;;;;;;;39.35;16.92;;;3.40;91.40;;;1.85;53.02;102035.53;4955039;28;20122;-73
2022/03/14 03:20:36;;;;;;;40.70;18.00;;;3.40;91.50;;;1.90;52.70;102029.50;4952970;28;20059;-73
2022/03/14 03:23:02;;;;;;;43.15;19.10;;;3.40;91.50;;;1.92;53.00;102028.66;4945126;28;20097;-74
2022/03/14 03:25:28;;;;;;;42.75;18.30;;;3.40;91.60;;;1.88;53.10;102032.13;4950656;28;20122;-73
2022/03/14 03:27:55;;;;;;;32.15;14.57;;;3.40;91.70;;;1.88;53.34;102031.22;4953822;28;24383;-74
2022/03/14 03:30:21;;;;;;;39.60;16.58;;;3.40;91.80;;;1.87;53.33;102035.56;4952899;28;20027;-73
2022/03/14 03:32:47;;;;;;;43.58;20.00;;;3.50;91.90;;;1.91;53.63;102034.72;4950931;28;20027;-73
2022/03/14 03:35:13;;;;;;;38.75;18.23;;;3.40;92.00;;;1.89;53.96;102033.84;4953105;28;20162;-74
2022/03/14 03:37:39;;;;;;;39.92;19.98;;;3.40;92.00;;;1.90;53.93;102037.31;4952331;28;20027;-74
2022/03/14 03:40:11;;;;;;;41.75;19.10;;;3.40;92.20;;;1.86;54.41;102033.81;4935445;28;20038;-74
2022/03/14 03:42:37;;;;;;;41.22;19.70;;;3.40;92.30;;;1.83;54.52;102045.03;4965538;28;20110;-73
2022/03/14 03:45:05;;;;;;;44.92;20.48;;;3.40;92.30;;;1.83;54.16;102052.81;4953250;28;20049;-73
2022/03/14 03:47:31;;;;;;;39.90;19.95;;;3.40;92.30;;;1.81;54.26;102048.47;4953930;28;20050;-73
2022/03/14 03:49:57;;;;;;;42.42;19.48;;;3.30;92.50;;;1.75;54.46;102051.00;4953119;28;20154;-73
2022/03/14 03:52:24;;;;;;;47.15;20.10;;;3.30;92.60;;;1.72;54.60;102058.75;4952043;28;20106;-74
2022/03/14 03:54:50;;;;;;;45.30;21.08;;;3.30;92.70;;;1.68;55.11;102056.97;4958002;28;20076;-74
2022/03/14 03:57:16;;;;;;;44.60;21.02;;;3.30;92.80;;;1.67;55.10;102063.91;4977343;28;20645;-73
2022/03/14 03:59:42;;;;;;;44.20;20.98;;;3.20;92.90;;;1.64;55.24;102056.06;4954177;28;20033;-74
2022/03/14 04:02:09;;;;;;;46.95;21.08;;;3.20;92.80;;;1.63;55.13;102062.13;4950132;28;20019;-73
2022/03/14 04:04:37;;;;;;;42.25;20.30;;;3.20;93.10;;;1.53;55.83;102060.25;4936884;28;20027;-73
2022/03/14 04:07:08;;;;;;;47.63;21.58;;;3.10;93.40;;;1.49;55.99;102059.38;4935499;28;20047;-74
2022/03/14 04:09:34;;;;;;;45.83;21.50;;;3.00;93.60;;;1.45;56.11;102055.00;4936376;28;20033;-76
2022/03/14 04:12:00;;;;;;;43.63;21.05;;;3.00;93.70;;;1.48;56.40;102055.03;4952511;28;20573;-73
2022/03/14 04:14:26;;;;;;;49.55;22.02;;;3.10;93.70;;;1.52;56.11;102055.94;4951463;28;20047;-73
2022/03/14 04:16:53;;;;;;;45.40;21.42;;;3.10;93.70;;;1.53;56.23;102057.66;4948935;28;20033;-74
2022/03/14 04:19:20;;;;;;;50.35;21.40;;;3.10;93.70;;;1.49;56.42;102058.47;4930124;28;20082;-74
2022/03/14 04:21:48;;;;;;;51.20;22.17;;;3.10;93.80;;;1.50;56.23;102053.31;4935480;28;20102;-73
2022/03/14 04:24:15;;;;;;;48.95;21.60;;;3.00;93.90;;;1.49;56.82;102054.19;4933702;28;20035;-73
2022/03/14 04:26:41;;;;;;;49.40;22.05;;;3.00;94.00;;;1.47;56.58;102052.41;4946653;28;20042;-73
2022/03/14 04:29:06;;;;;;;46.75;23.25;;;3.00;94.30;;;1.40;56.87;102067.03;4959302;28;20041;-73
2022/03/14 04:31:32;;;;;;;54.55;24.05;;;2.90;94.60;;;1.35;57.43;102054.00;4942437;28;20041;-73
2022/03/14 04:33:58;;;;;;;50.45;23.48;;;2.90;94.60;;;1.34;57.67;102056.56;4954495;28;20526;-73
2022/03/14 04:36:24;;;;;;;56.67;23.35;;;2.90;94.90;;;1.29;57.99;102047.84;4950002;28;20030;-75
2022/03/14 04:38:51;;;;;;;52.55;24.90;;;2.90;95.20;;;1.25;58.49;102046.94;4954721;28;20023;-74
2022/03/14 04:41:17;;;;;;;54.25;24.23;;;2.80;95.30;;;1.28;58.39;102046.13;4950768;28;20043;-74
2022/03/14 04:43:42;;;;;;;54.40;24.60;;;2.90;95.40;;;1.26;58.59;102040.06;4951768;28;20046;-74
2022/03/14 04:46:09;;;;;;;55.88;25.88;;;2.80;95.90;;;1.20;59.04;102044.28;4952094;28;20417;-74
2022/03/14 04:48:35;;;;;;;21.13;9.35;;;2.80;95.90;;;1.12;59.45;102050.22;4951063;28;20644;-74
2022/03/14 04:51:01;;;;;;;42.85;17.95;;;2.80;96.10;;;1.14;59.57;102061.50;4951617;28;20475;-73
2022/03/14 04:53:28;;;;;;;54.47;24.23;;;2.80;96.30;;;1.19;59.54;102055.53;4953532;28;20122;-73
2022/03/14 04:55:54;;;;;;;58.10;27.65;;;2.80;96.50;;;1.20;59.61;102053.81;4949322;28;20827;-73
2022/03/14 04:58:20;;;;;;;55.40;25.38;;;2.80;96.50;;;1.18;60.16;102055.50;4936274;28;20499;-73
2022/03/14 05:00:46;;;;;;;51.85;23.80;;;2.80;96.60;;;1.14;60.19;102056.31;4950354;28;20037;-72
2022/03/14 05:03:13;;;;;;;51.40;25.08;;;2.70;96.90;;;1.06;60.60;102053.63;4936269;28;20054;-73
2022/03/14 05:05:39;;;;;;;60.42;25.25;;;2.60;97.00;;;1.07;60.97;102059.69;4967035;28;20033;-74
2022/03/14 05:08:06;;;;;;;54.30;25.17;;;2.60;97.00;;;1.05;60.74;102061.38;4952930;28;20035;-74
2022/03/14 05:10:32;;;;;;;55.70;26.63;;;2.60;96.90;;;0.99;60.63;102064.75;4935662;28;20041;-73
2022/03/14 05:13:01;;;;;;;46.85;19.65;;;2.60;97.00;;;0.96;60.71;102075.09;4950192;28;20155;-74
2022/03/14 05:15:28;;;;;;;53.78;24.95;;;2.60;97.20;;;0.95;60.56;102068.13;4948875;28;20109;-73
2022/03/14 05:17:54;;;;;;;60.17;26.38;;;2.60;97.30;;;0.99;60.45;102070.81;4942010;28;20030;-74
2022/03/14 05:20:20;;;;;;;54.10;26.02;;;2.50;97.40;;;0.99;60.73;102075.13;4942175;28;20034;-73
2022/03/14 05:22:49;;;;;;;64.20;27.10;;;2.60;97.30;;;1.05;60.85;102082.13;4941862;28;20026;-74
2022/03/14 05:25:21;;;;;;;52.70;22.48;;;2.60;97.40;;;0.98;60.69;102084.63;4950765;28;20019;-73
2022/03/14 05:27:48;;;;;;;54.30;23.67;;;2.60;97.50;;;1.03;60.87;102080.38;4950605;28;20034;-73
2022/03/14 05:30:15;;;;;;;57.55;26.58;;;2.60;97.40;;;1.06;60.48;102078.66;4949946;28;20034;-74
2022/03/14 05:32:43;;;;;;;57.80;27.10;;;2.70;97.30;;;1.12;60.40;102082.22;4951290;28;20436;-73
2022/03/14 05:35:15;;;;;;;67.13;26.35;;;2.70;97.30;;;1.15;60.42;102084.00;4948803;28;20038;-73
2022/03/14 05:37:43;;;;;;;59.45;26.88;;;2.70;97.20;;;1.15;60.17;102082.28;4949814;28;20034;-73
2022/03/14 05:40:17;;;;;;;66.25;30.90;;;2.70;97.10;;;1.21;59.92;102089.28;4950998;28;20039;-73
2022/03/14 05:42:47;;;;;;;62.88;29.15;;;2.70;97.30;;;1.18;59.68;102082.31;4948585;28;20043;-75
2022/03/14 05:45:16;;;;;;;77.45;31.73;;;2.70;97.40;;;1.17;59.93;102078.00;4948818;28;20038;-73
2022/03/14 05:47:43;;;;;;;64.03;28.77;;;2.70;97.40;;;1.21;60.29;102076.31;4943019;28;20101;-74
2022/03/14 05:50:10;;;;;;;56.78;22.38;;;2.80;97.30;;;1.28;59.83;102082.47;4935099;28;20035;-74
2022/03/14 05:52:37;;;;;;;62.35;29.38;;;2.80;97.50;;;1.32;60.15;102079.03;4940061;28;20117;-73
2022/03/14 05:55:05;;;;;;;66.00;28.55;;;2.80;97.50;;;1.39;59.80;102089.53;4951989;28;20083;-73
2022/03/14 05:57:34;;;;;;;63.55;26.00;;;2.90;97.50;;;1.42;59.57;102086.94;4969956;28;20118;-73
2022/03/14 06:00:00;;;;;;;60.22;28.13;;;2.90;97.70;;;1.56;59.87;102088.88;4950645;28;20035;-73
2022/03/14 06:02:28;;;;;;;59.83;26.38;;;3.00;97.70;;;1.64;59.71;102084.63;4949800;28;20133;-74
2022/03/14 06:04:55;;;;;;;57.30;27.42;;;3.00;97.70;;;1.94;59.58;102089.28;4950921;28;20030;-73
2022/03/14 06:07:21;;;;;;;50.25;23.33;;;3.20;97.60;;;2.37;58.56;102087.13;4938760;28;20169;-74
2022/03/14 06:09:51;;;;;;;52.60;22.08;;;3.20;97.20;;;2.25;58.31;102089.63;4928058;28;20035;-73
2022/03/14 06:12:44;;;;;;;65.43;28.55;;;3.50;97.10;;;4.13;54.40;102099.41;4946446;28;20162;-73
2022/03/14 06:15:16;;;;;;;74.43;31.92;;;3.90;96.60;;;3.81;53.51;102118.41;4962850;28;20058;-74
2022/03/14 06:17:44;;;;;;;56.95;27.17;;;4.20;96.10;;;5.24;53.15;102126.34;4949545;28;20019;-72
2022/03/14 06:20:13;;;;;;;56.40;26.38;;;4.70;95.50;;;7.30;46.91;102135.56;4933968;28;20173;-73
2022/03/14 06:22:42;;;;;;;61.92;29.55;;;5.40;94.70;;;7.89;45.59;102159.38;4950532;28;20031;-73
2022/03/14 06:25:09;;;;;;;54.97;27.17;;;5.90;93.50;;;9.43;43.23;102172.75;4949627;28;20118;-73
2022/03/14 06:27:35;;;;;;;56.92;27.95;;;6.70;92.60;;;11.60;38.84;102200.28;4949420;28;20047;-73
2022/03/14 06:30:02;;;;;;;56.47;28.38;;;7.30;91.30;;;8.82;40.61;102198.31;4950921;28;20484;-73
2022/03/14 06:32:40;;;;;;;60.03;27.35;;;7.20;90.90;;;6.62;45.31;102179.81;4948481;28;20081;-73
2022/03/14 06:35:10;;;;;;;59.38;28.52;;;6.80;91.30;;;6.15;47.40;102176.59;4948446;28;20046;-73
2022/03/14 06:37:36;;;;;;;59.45;29.10;;;6.80;91.90;;;10.49;42.67;102170.56;4947748;28;20380;-74
2022/03/14 06:40:03;;;;;;;55.47;27.02;;;7.60;91.20;;;13.52;36.01;102211.97;4941558;28;20506;-72
2022/03/14 06:42:29;;;;;;;64.53;28.80;;;8.60;89.40;;;14.48;33.42;102231.34;4947423;28;20389;-74
2022/03/14 06:45:03;;;;;;;60.03;29.08;;;9.60;86.40;;;15.53;31.90;102240.38;4948198;28;20367;-73
2022/03/14 06:47:30;;;;;;;60.50;29.70;;;10.10;83.10;;;15.50;31.66;102246.66;4954472;28;20056;-74
2022/03/14 06:49:56;;;;;;;62.03;27.50;;;10.70;81.30;;;15.70;30.11;102261.72;4949475;28;20027;-73
2022/03/14 06:52:22;;;;;;;58.63;30.08;;;10.60;80.50;;;14.94;32.09;102255.19;4948317;28;20599;-74
2022/03/14 06:54:48;;;;;;;60.95;26.85;;;10.80;79.90;;;15.09;31.48;102261.66;4941149;28;20029;-74
2022/03/14 06:57:14;;;;;;;64.65;29.75;;;11.40;79.50;;;16.97;29.06;102262.97;4948378;28;20031;-73
2022/03/14 06:59:40;;;;;;;60.78;28.90;;;11.90;77.20;;;16.78;28.78;102280.72;4934223;28;20031;-72
2022/03/14 07:02:07;;;;;;;58.08;29.63;;;12.30;76.30;;;17.33;27.98;102295.84;4950146;28;20015;-73
2022/03/14 07:04:34;;;;;;;63.80;29.95;;;12.70;75.10;;;17.90;27.60;102306.28;4948057;28;20027;-73
2022/03/14 07:07:03;;;;;;;53.33;29.45;;;13.10;73.10;;;17.79;27.26;102315.63;4933780;28;20555;-73
2022/03/14 07:09:31;;;;;;;54.17;29.25;;;13.40;72.20;;;17.85;27.46;102317.16;4947148;28;20070;-74
2022/03/14 07:11:58;;;;;;;61.47;28.55;;;13.90;72.40;;;19.05;26.51;102335.56;4941080;28;20020;-74
2022/03/14 07:14:24;;;;;;;58.80;30.42;;;13.40;70.90;;;16.77;28.14;102327.75;4934104;28;20035;-74
2022/03/14 07:16:51;;;;;;;52.50;27.60;;;13.40;70.80;;;16.74;27.90;102333.22;4957522;28;20030;-73
2022/03/14 07:19:18;;;;;;;59.45;28.60;;;13.80;71.10;;;17.66;27.12;102335.00;4949264;28;20030;-74
2022/03/14 07:21:44;;;;;;;52.03;25.67;;;13.70;70.30;;;16.07;28.30;102333.63;4942558;28;20031;-75
2022/03/14 07:24:10;;;;;;;57.38;30.08;;;13.20;69.20;;;15.47;29.18;102331.72;4956600;28;20447;-74
2022/03/14 07:26:36;;;;;;;56.58;30.15;;;13.00;70.30;;;15.56;30.03;102323.38;4932593;28;20045;-74
2022/03/14 07:29:02;;;;;;;45.42;22.20;;;13.10;71.00;;;15.16;29.43;102324.16;4951229;28;20034;-74
2022/03/14 07:31:28;;;;;;;54.60;28.25;;;13.10;70.80;;;15.52;29.40;102335.03;4948551;28;20043;-74
2022/03/14 07:33:54;;;;;;;53.65;28.35;;;13.70;71.70;;;17.46;27.67;102330.69;4950107;28;20069;-75
2022/03/14 07:36:20;;;;;;;57.13;30.30;;;14.20;68.00;;;16.76;27.31;102351.75;4939864;28;20039;-74
2022/03/14 07:38:46;;;;;;;61.72;29.33;;;14.60;67.20;;;16.48;27.02;102366.34;4932053;28;20039;-74
2022/03/14 07:41:13;;;;;;;40.47;21.45;;;14.10;66.00;;;15.02;28.74;102361.84;4949631;28;20161;-74
2022/03/14 07:43:41;;;;;;;57.22;28.88;;;13.70;66.60;;;15.05;29.29;102348.47;4948533;28;20605;-74
2022/03/14 07:46:07;;;;;;;59.40;31.13;;;14.00;68.20;;;16.12;28.78;102343.13;4947973;28;20039;-74
2022/03/14 07:48:34;;;;;;;62.13;28.75;;;14.60;67.40;;;16.68;27.88;102351.28;4949040;28;20031;-75
2022/03/14 07:51:03;;;;;;;54.95;30.27;;;14.50;67.20;;;15.86;29.14;102346.06;4946985;28;20018;-74
2022/03/14 07:53:33;;;;;;;53.28;28.83;;;14.60;66.10;;;15.76;29.07;102353.56;4956701;28;20030;-74
2022/03/14 07:55:59;;;;;;;57.33;29.52;;;15.00;65.60;;;16.00;28.31;102356.94;4951866;28;20492;-74
2022/03/14 07:58:25;;;;;;;63.88;30.80;;;14.80;65.40;;;15.63;28.75;102354.97;4932617;28;20030;-74
2022/03/14 08:00:51;;;;;;;56.03;29.67;;;15.00;64.30;;;15.38;28.96;102356.88;4951419;28;20057;-73
2022/03/14 08:03:18;;;;;;;45.13;22.40;;;15.10;63.40;;;13.76;29.10;102369.06;4955115;28;20019;-74
2022/03/14 08:05:46;;;;;;;53.83;29.80;;;14.70;64.60;;;14.72;30.00;102355.94;4935575;28;20062;-73
2022/03/14 08:08:15;;;;;;;58.53;29.83;;;14.90;64.20;;;14.72;29.63;102367.41;4940566;28;20690;-75
2022/03/14 08:10:41;;;;;;;57.75;30.02;;;14.70;62.80;;;13.99;29.68;102370.06;4937055;28;20026;-74
2022/03/14 08:13:08;;;;;;;49.42;26.95;;;14.20;63.40;;;12.87;31.20;102361.28;4943012;28;20118;-74
2022/03/14 08:15:38;;;;;;;73.43;36.13;;;14.60;64.70;;;14.42;29.99;102364.09;4951581;28;20035;-74
2022/03/14 08:18:08;;;;;;;71.82;33.72;;;14.80;64.50;;;14.25;30.34;102367.34;4936250;28;20034;-74
2022/03/14 08:20:37;;;;;;;82.22;37.92;;;14.90;63.40;;;14.23;30.07;102368.31;4936952;28;20049;-74
2022/03/14 08:23:04;;;;;;;73.47;34.58;;;15.20;63.10;;;14.41;29.59;102362.38;4950887;28;20023;-73
2022/03/14 08:25:32;;;;;;;66.03;34.20;;;15.40;63.00;;;15.00;29.42;102361.03;4952677;28;20050;-75
2022/03/14 08:27:59;;;;;;;59.45;32.92;;;15.70;61.80;;;14.98;28.91;102374.38;4953771;28;20138;-74
2022/03/14 08:30:27;;;;;;;55.50;31.02;;;15.90;61.20;;;14.83;29.38;102372.31;4951919;28;20023;-74
2022/03/14 08:32:56;;;;;;;56.78;30.52;;;15.70;62.10;;;14.67;29.56;102368.53;4952102;28;20042;-74
2022/03/14 08:35:24;;;;;;;55.95;29.67;;;15.40;62.00;;;13.84;30.16;102360.84;4952439;28;20059;-74
2022/03/14 08:37:53;;;;;;;56.58;26.25;;;15.50;61.80;;;13.75;30.00;102369.97;4943943;28;20098;-74
2022/03/14 08:40:23;;;;;;;55.53;29.48;;;15.80;62.10;;;14.51;29.94;102363.78;4952592;28;20117;-74
2022/03/14 08:42:53;;;;;;;51.33;27.75;;;15.60;60.90;;;13.67;29.76;102372.91;4951146;28;20050;-74
2022/03/14 08:45:25;;;;;;;54.92;28.90;;;15.40;61.80;;;13.92;30.27;102380.84;4951300;28;20023;-75
2022/03/14 08:47:52;;;;;;;52.78;28.35;;;15.40;62.10;;;13.91;30.59;102375.63;4967005;28;20034;-74
2022/03/14 08:50:19;;;;;;;51.35;27.15;;;15.00;61.80;;;12.74;30.69;102376.63;4950494;28;20607;-74
2022/03/14 08:52:45;;;;;;;56.47;25.77;;;14.60;62.50;;;12.29;31.38;102371.78;4953685;28;20023;-74
2022/03/14 08:55:12;;;;;;;50.10;28.55;;;14.10;64.60;;;12.43;32.81;102366.97;4953793;28;20027;-74
2022/03/14 08:57:39;;;;;;;57.47;29.10;;;14.10;65.00;;;12.65;32.30;102359.28;4951660;28;20038;-74
2022/03/14 09:00:08;;;;;;;54.70;29.85;;;14.00;64.00;;;12.52;31.62;102360.53;4951471;28;20023;-74
2022/03/14 09:02:35;;;;;;;50.55;27.63;;;13.80;64.50;;;12.22;32.42;102357.84;4950047;28;20085;-75
2022/03/14 09:05:02;;;;;;;51.83;28.73;;;13.60;65.80;;;12.41;32.77;102360.84;4943735;28;20750;-74
2022/03/14 09:07:32;;;;;;;61.17;30.40;;;13.80;66.80;;;12.89;32.72;102352.41;4949522;28;20042;-74
2022/03/14 09:10:05;;;;;;;59.17;29.25;;;13.70;66.00;;;12.57;32.44;102352.47;4950852;28;20050;-73
2022/03/14 09:12:35;;;;;;;51.30;26.85;;;13.40;66.30;;;11.89;33.02;102341.16;4948279;28;20030;-74
2022/03/14 09:15:07;;;;;;;58.10;28.52;;;13.10;67.20;;;11.59;34.03;102335.72;4951079;28;20035;-74
2022/03/14 09:17:35;;;;;;;57.95;29.10;;;12.80;68.00;;;11.58;34.06;102328.72;4950138;28;20023;-75
2022/03/14 09:20:03;;;;;;;54.35;27.08;;;12.80;68.50;;;11.69;34.01;102329.31;4951820;28;20500;-74
2022/03/14 09:22:29;;;;;;;57.38;29.40;;;13.00;68.90;;;12.36;32.79;102328.44;4951754;28;20086;-74
2022/03/14 09:24:57;;;;;;;56.30;28.63;;;13.20;68.80;;;12.48;33.21;102327.19;4946881;28;20035;-74
2022/03/14 09:27:24;;;;;;;52.20;28.17;;;13.10;69.00;;;12.11;33.54;102325.59;4931945;28;20040;-73
2022/03/14 09:29:51;;;;;;;51.20;28.17;;;13.00;68.20;;;11.91;33.64;102326.16;4943919;28;20027;-74
2022/03/14 09:32:24;;;;;;;53.92;27.25;;;12.70;67.60;;;11.29;33.35;102332.06;4940637;28;20380;-74
2022/03/14 09:34:50;;;;;;;52.38;28.98;;;12.30;68.20;;;11.13;34.42;102336.84;4948010;28;20168;-74
2022/03/14 09:37:16;;;;;;;45.00;22.83;;;11.70;68.90;;;9.97;35.61;102340.97;4944108;28;20106;-73
2022/03/14 09:39:42;;;;;;;55.03;26.73;;;11.20;70.20;;;9.62;36.11;102333.69;4934847;28;20074;-74
2022/03/14 09:42:15;;;;;;;58.50;26.65;;;11.00;71.00;;;9.54;36.82;102320.66;4951434;28;20026;-73
2022/03/14 09:44:53;;;;;;;53.88;26.73;;;11.00;72.50;;;9.59;37.14;102324.09;4926652;28;20077;-74
2022/03/14 09:47:23;;;;;;;54.28;29.00;;;10.90;75.40;;;9.74;38.50;102312.44;4949618;28;20035;-74
2022/03/14 09:49:57;;;;;;;52.70;25.08;;;10.80;74.80;;;9.37;38.89;102313.09;4942222;28;20571;-74
2022/03/14 09:52:24;;;;;;;54.60;26.95;;;10.80;76.00;;;9.77;38.49;102316.78;4949828;28;20034;-74
2022/03/14 09:54:50;;;;;;;55.78;26.98;;;10.90;74.20;;;9.92;37.75;102319.13;4950121;28;20027;-74
2022/03/14 09:57:18;;;;;;;51.58;27.92;;;10.90;75.10;;;9.68;38.58;102314.31;4941395;28;20046;-74
2022/03/14 09:59:44;;;;;;;56.67;27.95;;;10.90;75.70;;;9.84;38.84;102319.25;4949964;28;20109;-73
2022/03/14 10:02:22;;;;;;;50.30;26.23;;;11.10;75.50;;;10.07;38.10;102316.22;4950208;28;20030;-73
2022/03/14 10:04:49;;;;;;;55.60;26.70;;;11.00;73.30;;;9.82;37.54;102320.19;4934941;28;20117;-74
2022/03/14 10:07:21;;;;;;;53.58;26.33;;;11.10;72.40;;;9.99;37.15;102317.25;4940763;28;20047;-73
2022/03/14 10:09:51;;;;;;;42.97;21.80;;;11.10;71.20;;;9.80;36.18;102314.09;4941942;28;20456;-74